sensor_id;sensor_type;location;lat;lon;timestamp;P1;durP1;ratioP1;P2;durP2;ratioP2
65896;SDS011;52677;50.898;10.854;2023-01-28T00:01:15;14.73;;;7.10;;
65896;SDS011;52677;50.898;10.854;2023-01-28T00:03:16;11.95;;;6.65;;
65896;SDS011;52677;50.898;10.854;2023-01-28T00:05:16;10.40;;;6.45;;
65896;SDS011;52677;50.898;10.854;2023-01-28T00:07:16;14.98;;;7.55;;
65896;SDS011;52677;50.898;10.854;2023-01-28T00:09:18;10.88;;;6.00;;
65896;SDS011;52677;50.898;10.854;2023-01-28T00:11:18;11.88;;;6.28;;
65896;SDS011;52677;50.898;10.854;2023-01-28T00:13:19;12.02;;;6.70;;
65896;SDS011;52677;50.898;10.854;2023-01-28T00:15:19;12.50;;;6.15;;
65896;SDS011;52677;50.898;10.854;2023-01-28T00:17:19;11.65;;;5.90;;
65896;SDS011;52677;50.898;10.854;2023-01-28T00:19:20;14.27;;;6.60;;
65896;SDS011;52677;50.898;10.854;2023-01-28T00:21:20;13.02;;;6.03;;
65896;SDS011;52677;50.898;10.854;2023-01-28T00:23:20;15.88;;;6.40;;
65896;SDS011;52677;50.898;10.854;2023-01-28T00:25:21;12.35;;;6.47;;
65896;SDS011;52677;50.898;10.854;2023-01-28T00:27:21;11.68;;;5.80;;
65896;SDS011;52677;50.898;10.854;2023-01-28T00:29:21;12.55;;;6.10;;
65896;SDS011;52677;50.898;10.854;2023-01-28T00:31:25;11.40;;;5.82;;
65896;SDS011;52677;50.898;10.854;2023-01-28T00:33:26;10.45;;;5.50;;
65896;SDS011;52677;50.898;10.854;2023-01-28T00:35:28;12.05;;;6.43;;
65896;SDS011;52677;50.898;10.854;2023-01-28T00:37:29;9.57;;;5.80;;
65896;SDS011;52677;50.898;10.854;2023-01-28T00:39:29;10.90;;;6.43;;
65896;SDS011;52677;50.898;10.854;2023-01-28T00:41:29;13.23;;;5.70;;
65896;SDS011;52677;50.898;10.854;2023-01-28T00:43:29;10.60;;;6.10;;
65896;SDS011;52677;50.898;10.854;2023-01-28T00:45:30;15.38;;;6.60;;
65896;SDS011;52677;50.898;10.854;2023-01-28T00:47:30;11.57;;;6.47;;
65896;SDS011;52677;50.898;10.854;2023-01-28T00:49:30;12.13;;;6.63;;
65896;SDS011;52677;50.898;10.854;2023-01-28T00:51:31;12.07;;;6.07;;
65896;SDS011;52677;50.898;10.854;2023-01-28T00:53:31;12.57;;;6.25;;
65896;SDS011;52677;50.898;10.854;2023-01-28T00:55:33;12.55;;;5.65;;
65896;SDS011;52677;50.898;10.854;2023-01-28T00:57:34;11.18;;;6.30;;
65896;SDS011;52677;50.898;10.854;2023-01-28T00:59:34;10.65;;;6.22;;
65896;SDS011;52677;50.898;10.854;2023-01-28T01:01:34;11.80;;;6.45;;
65896;SDS011;52677;50.898;10.854;2023-01-28T01:03:35;17.58;;;6.65;;
65896;SDS011;52677;50.898;10.854;2023-01-28T01:05:35;16.85;;;5.95;;
65896;SDS011;52677;50.898;10.854;2023-01-28T01:07:36;11.82;;;5.95;;
65896;SDS011;52677;50.898;10.854;2023-01-28T01:09:42;12.35;;;6.47;;
65896;SDS011;52677;50.898;10.854;2023-01-28T01:11:42;12.20;;;6.43;;
65896;SDS011;52677;50.898;10.854;2023-01-28T01:13:42;11.88;;;6.68;;
65896;SDS011;52677;50.898;10.854;2023-01-28T01:15:43;10.13;;;5.85;;
65896;SDS011;52677;50.898;10.854;2023-01-28T01:17:45;13.05;;;6.47;;
65896;SDS011;52677;50.898;10.854;2023-01-28T01:19:47;12.23;;;6.38;;
65896;SDS011;52677;50.898;10.854;2023-01-28T01:21:47;14.85;;;7.10;;
65896;SDS011;52677;50.898;10.854;2023-01-28T01:23:49;14.10;;;7.35;;
65896;SDS011;52677;50.898;10.854;2023-01-28T01:25:50;12.73;;;6.57;;
65896;SDS011;52677;50.898;10.854;2023-01-28T01:27:51;13.40;;;6.35;;
65896;SDS011;52677;50.898;10.854;2023-01-28T01:29:51;13.07;;;6.80;;
65896;SDS011;52677;50.898;10.854;2023-01-28T01:31:51;13.60;;;7.10;;
65896;SDS011;52677;50.898;10.854;2023-01-28T01:33:52;14.90;;;6.60;;
65896;SDS011;52677;50.898;10.854;2023-01-28T01:35:52;13.95;;;7.05;;
65896;SDS011;52677;50.898;10.854;2023-01-28T01:37:56;11.73;;;7.28;;
65896;SDS011;52677;50.898;10.854;2023-01-28T01:39:56;12.35;;;6.60;;
65896;SDS011;52677;50.898;10.854;2023-01-28T01:41:57;13.93;;;6.85;;
65896;SDS011;52677;50.898;10.854;2023-01-28T01:43:58;17.33;;;6.72;;
65896;SDS011;52677;50.898;10.854;2023-01-28T01:46:00;11.23;;;6.28;;
65896;SDS011;52677;50.898;10.854;2023-01-28T01:48:02;16.52;;;6.13;;
65896;SDS011;52677;50.898;10.854;2023-01-28T01:50:08;13.05;;;6.47;;
65896;SDS011;52677;50.898;10.854;2023-01-28T01:52:18;10.02;;;5.97;;
65896;SDS011;52677;50.898;10.854;2023-01-28T01:54:23;15.63;;;6.47;;
65896;SDS011;52677;50.898;10.854;2023-01-28T01:56:29;13.20;;;6.65;;
65896;SDS011;52677;50.898;10.854;2023-01-28T01:58:35;15.18;;;6.78;;
65896;SDS011;52677;50.898;10.854;2023-01-28T02:00:39;11.85;;;6.57;;
65896;SDS011;52677;50.898;10.854;2023-01-28T02:02:43;19.33;;;6.32;;
65896;SDS011;52677;50.898;10.854;2023-01-28T02:04:47;11.25;;;5.88;;
65896;SDS011;52677;50.898;10.854;2023-01-28T02:06:47;12.32;;;6.47;;
65896;SDS011;52677;50.898;10.854;2023-01-28T02:08:48;15.60;;;6.72;;
65896;SDS011;52677;50.898;10.854;2023-01-28T02:10:55;12.57;;;6.57;;
65896;SDS011;52677;50.898;10.854;2023-01-28T02:13:01;9.13;;;5.55;;
65896;SDS011;52677;50.898;10.854;2023-01-28T02:15:05;9.80;;;6.00;;
65896;SDS011;52677;50.898;10.854;2023-01-28T02:17:08;9.50;;;5.25;;
65896;SDS011;52677;50.898;10.854;2023-01-28T02:19:08;9.98;;;5.72;;
65896;SDS011;52677;50.898;10.854;2023-01-28T02:21:18;17.10;;;5.85;;
65896;SDS011;52677;50.898;10.854;2023-01-28T02:28:17;10.23;;;5.25;;
65896;SDS011;52677;50.898;10.854;2023-01-28T02:30:28;13.18;;;5.65;;
65896;SDS011;52677;50.898;10.854;2023-01-28T02:32:38;10.13;;;5.75;;
65896;SDS011;52677;50.898;10.854;2023-01-28T02:34:51;10.88;;;5.03;;
65896;SDS011;52677;50.898;10.854;2023-01-28T02:39:17;13.10;;;5.38;;
65896;SDS011;52677;50.898;10.854;2023-01-28T02:41:23;10.35;;;5.53;;
65896;SDS011;52677;50.898;10.854;2023-01-28T02:43:37;9.73;;;5.60;;
65896;SDS011;52677;50.898;10.854;2023-01-28T02:45:39;12.90;;;5.88;;
65896;SDS011;52677;50.898;10.854;2023-01-28T02:47:58;10.40;;;5.10;;
65896;SDS011;52677;50.898;10.854;2023-01-28T02:50:00;12.43;;;5.30;;
65896;SDS011;52677;50.898;10.854;2023-01-28T02:55:03;8.20;;;4.32;;
65896;SDS011;52677;50.898;10.854;2023-01-28T02:57:29;9.95;;;4.13;;
65896;SDS011;52677;50.898;10.854;2023-01-28T03:02:07;11.15;;;5.30;;
65896;SDS011;52677;50.898;10.854;2023-01-28T03:04:14;11.13;;;4.65;;
65896;SDS011;52677;50.898;10.854;2023-01-28T03:06:23;10.43;;;5.20;;
65896;SDS011;52677;50.898;10.854;2023-01-28T03:09:03;8.77;;;4.10;;
65896;SDS011;52677;50.898;10.854;2023-01-28T03:11:17;8.68;;;4.47;;
65896;SDS011;52677;50.898;10.854;2023-01-28T03:13:36;8.05;;;4.45;;
65896;SDS011;52677;50.898;10.854;2023-01-28T03:15:56;6.57;;;3.88;;
65896;SDS011;52677;50.898;10.854;2023-01-28T03:18:16;11.23;;;5.10;;
65896;SDS011;52677;50.898;10.854;2023-01-28T03:23:29;8.20;;;4.45;;
65896;SDS011;52677;50.898;10.854;2023-01-28T03:25:56;9.73;;;4.10;;
65896;SDS011;52677;50.898;10.854;2023-01-28T03:28:18;8.85;;;4.70;;
65896;SDS011;52677;50.898;10.854;2023-01-28T03:30:39;11.80;;;4.57;;
65896;SDS011;52677;50.898;10.854;2023-01-28T03:33:03;7.57;;;4.43;;
65896;SDS011;52677;50.898;10.854;2023-01-28T03:35:23;10.80;;;4.10;;
65896;SDS011;52677;50.898;10.854;2023-01-28T03:37:47;9.63;;;4.40;;
65896;SDS011;52677;50.898;10.854;2023-01-28T03:39:47;6.30;;;4.13;;
65896;SDS011;52677;50.898;10.854;2023-01-28T03:44:08;8.52;;;4.63;;
65896;SDS011;52677;50.898;10.854;2023-01-28T03:46:27;9.73;;;5.28;;
65896;SDS011;52677;50.898;10.854;2023-01-28T03:48:27;7.25;;;4.53;;
65896;SDS011;52677;50.898;10.854;2023-01-28T03:50:28;13.00;;;5.93;;
65896;SDS011;52677;50.898;10.854;2023-01-28T03:52:30;10.00;;;5.68;;
65896;SDS011;52677;50.898;10.854;2023-01-28T03:54:31;11.55;;;5.00;;
65896;SDS011;52677;50.898;10.854;2023-01-28T03:56:32;9.65;;;5.57;;
65896;SDS011;52677;50.898;10.854;2023-01-28T03:58:36;8.90;;;5.22;;
65896;SDS011;52677;50.898;10.854;2023-01-28T04:00:52;9.60;;;5.55;;
65896;SDS011;52677;50.898;10.854;2023-01-28T04:02:52;12.45;;;5.97;;
65896;SDS011;52677;50.898;10.854;2023-01-28T04:04:53;13.27;;;5.90;;
65896;SDS011;52677;50.898;10.854;2023-01-28T04:06:53;10.80;;;5.97;;
65896;SDS011;52677;50.898;10.854;2023-01-28T04:08:54;11.10;;;5.65;;
65896;SDS011;52677;50.898;10.854;2023-01-28T04:10:58;11.27;;;5.45;;
65896;SDS011;52677;50.898;10.854;2023-01-28T04:13:14;12.15;;;6.28;;
65896;SDS011;52677;50.898;10.854;2023-01-28T04:15:15;13.70;;;6.10;;
65896;SDS011;52677;50.898;10.854;2023-01-28T04:17:15;12.85;;;6.30;;
65896;SDS011;52677;50.898;10.854;2023-01-28T04:19:16;11.23;;;5.88;;
65896;SDS011;52677;50.898;10.854;2023-01-28T04:21:16;14.52;;;6.93;;
65896;SDS011;52677;50.898;10.854;2023-01-28T04:23:16;10.85;;;5.85;;
65896;SDS011;52677;50.898;10.854;2023-01-28T04:25:17;13.70;;;6.95;;
65896;SDS011;52677;50.898;10.854;2023-01-28T04:27:17;13.65;;;7.28;;
65896;SDS011;52677;50.898;10.854;2023-01-28T04:29:17;12.65;;;6.38;;
65896;SDS011;52677;50.898;10.854;2023-01-28T04:31:17;12.23;;;6.45;;
65896;SDS011;52677;50.898;10.854;2023-01-28T04:33:18;12.85;;;6.90;;
65896;SDS011;52677;50.898;10.854;2023-01-28T04:35:18;12.63;;;6.70;;
65896;SDS011;52677;50.898;10.854;2023-01-28T04:37:19;11.65;;;6.68;;
65896;SDS011;52677;50.898;10.854;2023-01-28T04:39:19;12.55;;;6.35;;
65896;SDS011;52677;50.898;10.854;2023-01-28T04:41:19;12.25;;;6.10;;
65896;SDS011;52677;50.898;10.854;2023-01-28T04:43:20;11.98;;;6.63;;
65896;SDS011;52677;50.898;10.854;2023-01-28T04:45:20;13.00;;;7.72;;
65896;SDS011;52677;50.898;10.854;2023-01-28T04:47:21;12.98;;;6.85;;
65896;SDS011;52677;50.898;10.854;2023-01-28T04:49:21;15.18;;;7.25;;
65896;SDS011;52677;50.898;10.854;2023-01-28T04:51:22;13.43;;;6.03;;
65896;SDS011;52677;50.898;10.854;2023-01-28T04:53:22;13.68;;;6.75;;
65896;SDS011;52677;50.898;10.854;2023-01-28T04:55:22;15.50;;;7.10;;
65896;SDS011;52677;50.898;10.854;2023-01-28T04:57:23;11.77;;;6.65;;
65896;SDS011;52677;50.898;10.854;2023-01-28T04:59:24;12.20;;;7.03;;
65896;SDS011;52677;50.898;10.854;2023-01-28T05:01:24;12.18;;;6.75;;
65896;SDS011;52677;50.898;10.854;2023-01-28T05:03:25;11.73;;;7.00;;
65896;SDS011;52677;50.898;10.854;2023-01-28T05:05:26;12.32;;;7.10;;
65896;SDS011;52677;50.898;10.854;2023-01-28T05:07:26;12.30;;;6.53;;
65896;SDS011;52677;50.898;10.854;2023-01-28T05:09:26;14.35;;;7.30;;
65896;SDS011;52677;50.898;10.854;2023-01-28T05:11:27;12.60;;;7.15;;
65896;SDS011;52677;50.898;10.854;2023-01-28T05:13:27;13.00;;;6.47;;
65896;SDS011;52677;50.898;10.854;2023-01-28T05:15:27;12.93;;;6.57;;
65896;SDS011;52677;50.898;10.854;2023-01-28T05:17:28;10.55;;;6.28;;
65896;SDS011;52677;50.898;10.854;2023-01-28T05:19:28;11.52;;;6.18;;
65896;SDS011;52677;50.898;10.854;2023-01-28T05:21:28;12.48;;;6.55;;
65896;SDS011;52677;50.898;10.854;2023-01-28T05:23:28;13.95;;;6.75;;
65896;SDS011;52677;50.898;10.854;2023-01-28T05:25:29;12.27;;;6.68;;
65896;SDS011;52677;50.898;10.854;2023-01-28T05:27:29;10.95;;;6.22;;
65896;SDS011;52677;50.898;10.854;2023-01-28T05:29:29;12.75;;;6.75;;
65896;SDS011;52677;50.898;10.854;2023-01-28T05:31:30;12.80;;;6.43;;
65896;SDS011;52677;50.898;10.854;2023-01-28T05:33:30;10.10;;;6.10;;
65896;SDS011;52677;50.898;10.854;2023-01-28T05:35:31;12.55;;;6.75;;
65896;SDS011;52677;50.898;10.854;2023-01-28T05:37:31;12.70;;;6.45;;
65896;SDS011;52677;50.898;10.854;2023-01-28T05:39:31;12.27;;;6.25;;
65896;SDS011;52677;50.898;10.854;2023-01-28T05:41:32;12.88;;;6.60;;
65896;SDS011;52677;50.898;10.854;2023-01-28T05:43:32;12.52;;;6.45;;
65896;SDS011;52677;50.898;10.854;2023-01-28T05:45:33;12.43;;;6.10;;
65896;SDS011;52677;50.898;10.854;2023-01-28T05:47:33;12.90;;;6.78;;
65896;SDS011;52677;50.898;10.854;2023-01-28T05:49:33;12.52;;;5.78;;
65896;SDS011;52677;50.898;10.854;2023-01-28T05:51:34;9.90;;;5.95;;
65896;SDS011;52677;50.898;10.854;2023-01-28T05:53:34;12.75;;;6.47;;
65896;SDS011;52677;50.898;10.854;2023-01-28T05:55:34;11.75;;;5.88;;
65896;SDS011;52677;50.898;10.854;2023-01-28T05:57:35;14.80;;;5.70;;
65896;SDS011;52677;50.898;10.854;2023-01-28T05:59:35;11.07;;;5.78;;
65896;SDS011;52677;50.898;10.854;2023-01-28T06:01:36;13.00;;;5.57;;
65896;SDS011;52677;50.898;10.854;2023-01-28T06:03:36;10.90;;;6.20;;
65896;SDS011;52677;50.898;10.854;2023-01-28T06:05:37;13.63;;;5.82;;
65896;SDS011;52677;50.898;10.854;2023-01-28T06:07:37;10.20;;;5.70;;
65896;SDS011;52677;50.898;10.854;2023-01-28T06:09:38;10.82;;;5.57;;
65896;SDS011;52677;50.898;10.854;2023-01-28T06:11:38;11.85;;;5.38;;
65896;SDS011;52677;50.898;10.854;2023-01-28T06:13:38;15.07;;;6.30;;
65896;SDS011;52677;50.898;10.854;2023-01-28T06:15:40;10.75;;;5.70;;
65896;SDS011;52677;50.898;10.854;2023-01-28T06:17:40;8.63;;;4.88;;
65896;SDS011;52677;50.898;10.854;2023-01-28T06:19:41;9.45;;;5.55;;
65896;SDS011;52677;50.898;10.854;2023-01-28T06:21:41;8.20;;;4.55;;
65896;SDS011;52677;50.898;10.854;2023-01-28T06:23:42;9.50;;;5.40;;
65896;SDS011;52677;50.898;10.854;2023-01-28T06:25:42;10.82;;;5.25;;
65896;SDS011;52677;50.898;10.854;2023-01-28T06:27:43;9.38;;;5.60;;
65896;SDS011;52677;50.898;10.854;2023-01-28T06:29:43;8.32;;;5.22;;
65896;SDS011;52677;50.898;10.854;2023-01-28T06:31:43;8.73;;;5.18;;
65896;SDS011;52677;50.898;10.854;2023-01-28T06:33:44;10.73;;;5.15;;
65896;SDS011;52677;50.898;10.854;2023-01-28T06:35:44;7.97;;;4.93;;
65896;SDS011;52677;50.898;10.854;2023-01-28T06:37:45;8.90;;;5.30;;
65896;SDS011;52677;50.898;10.854;2023-01-28T06:39:45;14.32;;;5.80;;
65896;SDS011;52677;50.898;10.854;2023-01-28T06:41:46;10.65;;;5.32;;
65896;SDS011;52677;50.898;10.854;2023-01-28T06:43:46;10.32;;;5.65;;
65896;SDS011;52677;50.898;10.854;2023-01-28T06:45:46;12.52;;;5.60;;
65896;SDS011;52677;50.898;10.854;2023-01-28T06:47:47;9.63;;;5.20;;
65896;SDS011;52677;50.898;10.854;2023-01-28T06:49:47;10.35;;;5.38;;
65896;SDS011;52677;50.898;10.854;2023-01-28T06:51:48;10.77;;;5.97;;
65896;SDS011;52677;50.898;10.854;2023-01-28T06:53:49;8.75;;;5.57;;
65896;SDS011;52677;50.898;10.854;2023-01-28T06:55:49;18.73;;;7.50;;
65896;SDS011;52677;50.898;10.854;2023-01-28T06:57:49;12.85;;;6.00;;
65896;SDS011;52677;50.898;10.854;2023-01-28T06:59:50;16.95;;;6.00;;
65896;SDS011;52677;50.898;10.854;2023-01-28T07:01:50;12.10;;;6.15;;
65896;SDS011;52677;50.898;10.854;2023-01-28T07:03:50;9.48;;;5.22;;
65896;SDS011;52677;50.898;10.854;2023-01-28T07:05:50;15.35;;;6.22;;
65896;SDS011;52677;50.898;10.854;2023-01-28T07:07:51;10.98;;;6.72;;
65896;SDS011;52677;50.898;10.854;2023-01-28T07:09:51;11.40;;;5.85;;
65896;SDS011;52677;50.898;10.854;2023-01-28T07:11:52;13.32;;;7.20;;
65896;SDS011;52677;50.898;10.854;2023-01-28T07:13:52;12.68;;;6.43;;
65896;SDS011;52677;50.898;10.854;2023-01-28T07:15:52;13.95;;;6.45;;
65896;SDS011;52677;50.898;10.854;2023-01-28T07:17:53;12.57;;;6.18;;
65896;SDS011;52677;50.898;10.854;2023-01-28T07:19:53;9.75;;;6.00;;
65896;SDS011;52677;50.898;10.854;2023-01-28T07:21:53;13.88;;;6.75;;
65896;SDS011;52677;50.898;10.854;2023-01-28T07:23:57;11.45;;;5.90;;
65896;SDS011;52677;50.898;10.854;2023-01-28T07:26:01;12.82;;;7.05;;
65896;SDS011;52677;50.898;10.854;2023-01-28T07:28:02;12.15;;;6.88;;
65896;SDS011;52677;50.898;10.854;2023-01-28T07:30:02;14.88;;;7.07;;
65896;SDS011;52677;50.898;10.854;2023-01-28T07:32:03;9.93;;;6.13;;
65896;SDS011;52677;50.898;10.854;2023-01-28T07:34:06;12.50;;;6.55;;
65896;SDS011;52677;50.898;10.854;2023-01-28T07:36:07;12.83;;;6.83;;
65896;SDS011;52677;50.898;10.854;2023-01-28T07:38:08;13.02;;;7.05;;
65896;SDS011;52677;50.898;10.854;2023-01-28T07:40:08;12.63;;;7.22;;
65896;SDS011;52677;50.898;10.854;2023-01-28T07:42:09;14.48;;;8.40;;
65896;SDS011;52677;50.898;10.854;2023-01-28T07:44:10;12.05;;;6.57;;
65896;SDS011;52677;50.898;10.854;2023-01-28T07:46:10;10.52;;;5.88;;
65896;SDS011;52677;50.898;10.854;2023-01-28T07:48:12;15.68;;;6.68;;
65896;SDS011;52677;50.898;10.854;2023-01-28T07:50:13;13.48;;;6.60;;
65896;SDS011;52677;50.898;10.854;2023-01-28T07:52:14;10.33;;;6.60;;
65896;SDS011;52677;50.898;10.854;2023-01-28T07:54:15;13.93;;;6.38;;
65896;SDS011;52677;50.898;10.854;2023-01-28T07:56:15;10.23;;;5.95;;
65896;SDS011;52677;50.898;10.854;2023-01-28T07:58:16;12.52;;;6.88;;
65896;SDS011;52677;50.898;10.854;2023-01-28T08:00:16;10.52;;;6.07;;
65896;SDS011;52677;50.898;10.854;2023-01-28T08:02:17;10.95;;;7.45;;
65896;SDS011;52677;50.898;10.854;2023-01-28T08:04:17;12.88;;;6.78;;
65896;SDS011;52677;50.898;10.854;2023-01-28T08:06:18;13.40;;;6.47;;
65896;SDS011;52677;50.898;10.854;2023-01-28T08:08:18;11.38;;;5.95;;
65896;SDS011;52677;50.898;10.854;2023-01-28T08:10:18;8.90;;;5.78;;
65896;SDS011;52677;50.898;10.854;2023-01-28T08:12:19;12.35;;;6.43;;
65896;SDS011;52677;50.898;10.854;2023-01-28T08:14:19;11.18;;;5.50;;
65896;SDS011;52677;50.898;10.854;2023-01-28T08:16:19;10.57;;;5.60;;
65896;SDS011;52677;50.898;10.854;2023-01-28T08:18:20;10.98;;;6.13;;
65896;SDS011;52677;50.898;10.854;2023-01-28T08:20:20;8.88;;;5.40;;
65896;SDS011;52677;50.898;10.854;2023-01-28T08:22:25;13.95;;;6.07;;
65896;SDS011;52677;50.898;10.854;2023-01-28T08:24:26;10.85;;;6.03;;
65896;SDS011;52677;50.898;10.854;2023-01-28T08:26:26;9.70;;;5.18;;
65896;SDS011;52677;50.898;10.854;2023-01-28T08:28:26;12.27;;;5.65;;
65896;SDS011;52677;50.898;10.854;2023-01-28T08:30:27;10.02;;;6.28;;
65896;SDS011;52677;50.898;10.854;2023-01-28T08:32:28;10.05;;;5.60;;
65896;SDS011;52677;50.898;10.854;2023-01-28T08:34:29;11.20;;;5.63;;
65896;SDS011;52677;50.898;10.854;2023-01-28T08:36:30;10.27;;;5.70;;
65896;SDS011;52677;50.898;10.854;2023-01-28T08:38:30;9.80;;;6.03;;
65896;SDS011;52677;50.898;10.854;2023-01-28T08:40:31;11.13;;;6.50;;
65896;SDS011;52677;50.898;10.854;2023-01-28T08:42:31;14.40;;;6.78;;
65896;SDS011;52677;50.898;10.854;2023-01-28T08:44:32;11.95;;;6.22;;
65896;SDS011;52677;50.898;10.854;2023-01-28T08:46:32;10.35;;;5.35;;
65896;SDS011;52677;50.898;10.854;2023-01-28T08:48:33;12.43;;;5.53;;
65896;SDS011;52677;50.898;10.854;2023-01-28T08:50:34;11.30;;;4.82;;
65896;SDS011;52677;50.898;10.854;2023-01-28T08:54:36;11.38;;;5.25;;
65896;SDS011;52677;50.898;10.854;2023-01-28T08:56:36;7.85;;;4.63;;
65896;SDS011;52677;50.898;10.854;2023-01-28T08:58:38;8.13;;;5.50;;
65896;SDS011;52677;50.898;10.854;2023-01-28T09:00:39;7.65;;;4.63;;
65896;SDS011;52677;50.898;10.854;2023-01-28T09:02:39;9.25;;;4.75;;
65896;SDS011;52677;50.898;10.854;2023-01-28T09:04:39;8.25;;;4.43;;
65896;SDS011;52677;50.898;10.854;2023-01-28T09:06:41;9.40;;;4.82;;
65896;SDS011;52677;50.898;10.854;2023-01-28T09:08:41;13.52;;;7.55;;
65896;SDS011;52677;50.898;10.854;2023-01-28T09:10:41;9.52;;;5.22;;
65896;SDS011;52677;50.898;10.854;2023-01-28T09:12:42;11.95;;;4.60;;
65896;SDS011;52677;50.898;10.854;2023-01-28T09:14:43;11.05;;;4.72;;
65896;SDS011;52677;50.898;10.854;2023-01-28T09:16:43;8.93;;;4.90;;
65896;SDS011;52677;50.898;10.854;2023-01-28T09:18:44;7.60;;;4.50;;
65896;SDS011;52677;50.898;10.854;2023-01-28T09:20:44;9.75;;;5.50;;
65896;SDS011;52677;50.898;10.854;2023-01-28T09:22:44;5.47;;;3.25;;
65896;SDS011;52677;50.898;10.854;2023-01-28T09:24:45;8.57;;;3.88;;
65896;SDS011;52677;50.898;10.854;2023-01-28T09:26:47;9.73;;;4.97;;
65896;SDS011;52677;50.898;10.854;2023-01-28T09:28:49;6.00;;;4.05;;
65896;SDS011;52677;50.898;10.854;2023-01-28T09:30:49;10.13;;;4.03;;
65896;SDS011;52677;50.898;10.854;2023-01-28T09:32:50;6.20;;;4.47;;
65896;SDS011;52677;50.898;10.854;2023-01-28T09:34:51;7.43;;;4.47;;
65896;SDS011;52677;50.898;10.854;2023-01-28T09:36:51;7.03;;;3.67;;
65896;SDS011;52677;50.898;10.854;2023-01-28T09:38:52;6.85;;;3.95;;
65896;SDS011;52677;50.898;10.854;2023-01-28T09:40:52;7.75;;;4.28;;
65896;SDS011;52677;50.898;10.854;2023-01-28T09:45:00;6.38;;;4.15;;
65896;SDS011;52677;50.898;10.854;2023-01-28T09:47:15;7.28;;;4.25;;
65896;SDS011;52677;50.898;10.854;2023-01-28T09:49:42;8.45;;;4.70;;
65896;SDS011;52677;50.898;10.854;2023-01-28T09:51:49;6.22;;;3.90;;
65896;SDS011;52677;50.898;10.854;2023-01-28T09:53:52;10.77;;;5.28;;
65896;SDS011;52677;50.898;10.854;2023-01-28T09:55:58;6.30;;;4.15;;
65896;SDS011;52677;50.898;10.854;2023-01-28T09:58:09;8.10;;;4.53;;
65896;SDS011;52677;50.898;10.854;2023-01-28T10:00:15;8.57;;;4.63;;
65896;SDS011;52677;50.898;10.854;2023-01-28T10:02:25;7.20;;;3.97;;
65896;SDS011;52677;50.898;10.854;2023-01-28T10:04:30;5.68;;;3.45;;
65896;SDS011;52677;50.898;10.854;2023-01-28T10:08:44;7.30;;;4.38;;
65896;SDS011;52677;50.898;10.854;2023-01-28T10:11:09;6.25;;;3.95;;
65896;SDS011;52677;50.898;10.854;2023-01-28T10:13:42;8.27;;;3.63;;
65896;SDS011;52677;50.898;10.854;2023-01-28T10:15:53;5.97;;;3.50;;
65896;SDS011;52677;50.898;10.854;2023-01-28T10:18:07;6.80;;;4.45;;
65896;SDS011;52677;50.898;10.854;2023-01-28T10:22:17;8.75;;;3.97;;
65896;SDS011;52677;50.898;10.854;2023-01-28T10:24:28;6.13;;;3.92;;
65896;SDS011;52677;50.898;10.854;2023-01-28T10:26:37;6.55;;;3.72;;
65896;SDS011;52677;50.898;10.854;2023-01-28T10:28:39;5.43;;;3.83;;
65896;SDS011;52677;50.898;10.854;2023-01-28T10:30:39;8.95;;;4.38;;
65896;SDS011;52677;50.898;10.854;2023-01-28T10:32:51;5.63;;;3.78;;
65896;SDS011;52677;50.898;10.854;2023-01-28T10:34:52;9.70;;;4.22;;
65896;SDS011;52677;50.898;10.854;2023-01-28T10:36:52;6.22;;;4.30;;
65896;SDS011;52677;50.898;10.854;2023-01-28T10:38:54;5.53;;;3.65;;
65896;SDS011;52677;50.898;10.854;2023-01-28T10:41:01;7.90;;;4.60;;
65896;SDS011;52677;50.898;10.854;2023-01-28T10:43:02;5.65;;;4.22;;
65896;SDS011;52677;50.898;10.854;2023-01-28T10:47:16;10.05;;;4.13;;
65896;SDS011;52677;50.898;10.854;2023-01-28T10:49:27;6.75;;;4.20;;
65896;SDS011;52677;50.898;10.854;2023-01-28T10:55:35;7.57;;;4.10;;
65896;SDS011;52677;50.898;10.854;2023-01-28T10:57:51;4.72;;;3.75;;
65896;SDS011;52677;50.898;10.854;2023-01-28T10:59:53;5.13;;;3.40;;
65896;SDS011;52677;50.898;10.854;2023-01-28T11:01:55;4.40;;;3.35;;
65896;SDS011;52677;50.898;10.854;2023-01-28T11:03:58;5.82;;;3.65;;
65896;SDS011;52677;50.898;10.854;2023-01-28T11:05:59;5.20;;;3.25;;
65896;SDS011;52677;50.898;10.854;2023-01-28T11:10:23;4.43;;;3.22;;
65896;SDS011;52677;50.898;10.854;2023-01-28T11:12:32;4.63;;;3.28;;
65896;SDS011;52677;50.898;10.854;2023-01-28T11:14:33;5.38;;;3.25;;
65896;SDS011;52677;50.898;10.854;2023-01-28T11:16:33;6.32;;;3.40;;
65896;SDS011;52677;50.898;10.854;2023-01-28T11:18:34;4.18;;;3.10;;
65896;SDS011;52677;50.898;10.854;2023-01-28T11:20:42;6.07;;;3.35;;
65896;SDS011;52677;50.898;10.854;2023-01-28T11:22:50;4.28;;;3.22;;
65896;SDS011;52677;50.898;10.854;2023-01-28T11:24:52;4.90;;;3.30;;
65896;SDS011;52677;50.898;10.854;2023-01-28T11:26:54;4.97;;;3.60;;
65896;SDS011;52677;50.898;10.854;2023-01-28T11:28:56;4.57;;;3.58;;
65896;SDS011;52677;50.898;10.854;2023-01-28T11:30:57;5.57;;;3.50;;
65896;SDS011;52677;50.898;10.854;2023-01-28T11:35:28;9.77;;;4.60;;
65896;SDS011;52677;50.898;10.854;2023-01-28T11:37:30;5.28;;;3.08;;
65896;SDS011;52677;50.898;10.854;2023-01-28T11:39:30;3.97;;;3.33;;
65896;SDS011;52677;50.898;10.854;2023-01-28T11:41:32;11.82;;;6.00;;
65896;SDS011;52677;50.898;10.854;2023-01-28T11:43:34;8.88;;;5.53;;
65896;SDS011;52677;50.898;10.854;2023-01-28T11:45:37;16.15;;;9.70;;
65896;SDS011;52677;50.898;10.854;2023-01-28T11:47:55;9.95;;;6.53;;
65896;SDS011;52677;50.898;10.854;2023-01-28T11:50:06;8.35;;;4.63;;
65896;SDS011;52677;50.898;10.854;2023-01-28T11:56:55;4.10;;;3.70;;
65896;SDS011;52677;50.898;10.854;2023-01-28T12:16:05;3.42;;;2.55;;
65896;SDS011;52677;50.898;10.854;2023-01-28T12:25:45;4.00;;;3.28;;
65896;SDS011;52677;50.898;10.854;2023-01-28T12:27:58;5.40;;;3.67;;
65896;SDS011;52677;50.898;10.854;2023-01-28T12:30:16;4.75;;;2.70;;
65896;SDS011;52677;50.898;10.854;2023-01-28T12:32:34;5.90;;;3.13;;
65896;SDS011;52677;50.898;10.854;2023-01-28T12:34:48;4.68;;;3.60;;
65896;SDS011;52677;50.898;10.854;2023-01-28T12:41:46;5.18;;;2.88;;
65896;SDS011;52677;50.898;10.854;2023-01-28T12:44:01;3.90;;;2.85;;
65896;SDS011;52677;50.898;10.854;2023-01-28T12:46:24;4.85;;;2.47;;
65896;SDS011;52677;50.898;10.854;2023-01-28T12:48:33;3.50;;;2.90;;
65896;SDS011;52677;50.898;10.854;2023-01-28T12:50:41;3.28;;;2.65;;
65896;SDS011;52677;50.898;10.854;2023-01-28T12:52:54;2.90;;;2.40;;
65896;SDS011;52677;50.898;10.854;2023-01-28T12:57:58;3.40;;;2.75;;
65896;SDS011;52677;50.898;10.854;2023-01-28T13:02:16;4.60;;;2.72;;
65896;SDS011;52677;50.898;10.854;2023-01-28T13:04:32;3.72;;;2.60;;
65896;SDS011;52677;50.898;10.854;2023-01-28T13:06:41;6.82;;;3.20;;
65896;SDS011;52677;50.898;10.854;2023-01-28T13:08:55;4.13;;;3.47;;
65896;SDS011;52677;50.898;10.854;2023-01-28T13:11:01;4.07;;;3.40;;
65896;SDS011;52677;50.898;10.854;2023-01-28T13:13:03;3.95;;;2.97;;
65896;SDS011;52677;50.898;10.854;2023-01-28T13:15:09;4.13;;;2.72;;
65896;SDS011;52677;50.898;10.854;2023-01-28T13:17:11;3.83;;;2.90;;
65896;SDS011;52677;50.898;10.854;2023-01-28T13:19:24;4.60;;;3.10;;
65896;SDS011;52677;50.898;10.854;2023-01-28T13:21:35;6.15;;;3.33;;
65896;SDS011;52677;50.898;10.854;2023-01-28T13:25:46;2.90;;;2.60;;